Time;durP1;ratioP1;P1;durP2;ratioP2;P2;SDS_P1;SDS_P2;PMS_P1;PMS_P2;Temp;Humidity;BMP_temperature;BMP_pressure;BME280_temperature;BME280_humidity;BME280_pressure;Samples;Min_cycle;Max_cycle;Signal;HPM_P1;HPM_P2
2023/06/18 00:02:04;;;;;;;2.17;1.00;;;25.30;45.40;;;;;;5053281;28;20049;-58
2023/06/18 00:04:32;;;;;;;1.13;1.13;;;25.30;45.40;;;;;;5053037;28;20558;-58
2023/06/18 00:06:59;;;;;;;1.30;1.20;;;25.30;45.40;;;;;;5053106;28;20045;-58
2023/06/18 00:09:26;;;;;;;1.42;1.30;;;25.30;45.40;;;;;;5052409;28;20099;-59
2023/06/18 00:11:53;;;;;;;1.38;1.27;;;25.30;45.40;;;;;;5053494;28;20049;-58
2023/06/18 00:14:20;;;;;;;1.58;1.48;;;25.30;45.40;;;;;;5053145;28;20052;-59
2023/06/18 00:16:50;;;;;;;1.27;1.17;;;25.30;45.40;;;;;;5053408;28;20056;-58
2023/06/18 00:19:18;;;;;;;1.13;1.10;;;25.30;45.30;;;;;;5052435;28;20060;-58
2023/06/18 00:21:45;;;;;;;1.10;1.10;;;25.30;45.40;;;;;;5052983;28;20448;-58
2023/06/18 00:24:13;;;;;;;1.20;1.10;;;25.30;45.40;;;;;;5053094;28;20041;-58
2023/06/18 00:26:40;;;;;;;1.42;1.33;;;25.30;45.40;;;;;;5052911;28;20444;-58
2023/06/18 00:29:07;;;;;;;1.67;1.58;;;25.30;45.40;;;;;;5052675;28;20052;-58
2023/06/18 00:31:36;;;;;;;1.45;1.20;;;25.30;45.40;;;;;;5053046;28;20041;-58
2023/06/18 00:34:07;;;;;;;1.40;1.27;;;25.30;45.40;;;;;;5052712;28;20140;-58
2023/06/18 00:36:38;;;;;;;1.33;1.23;;;25.30;45.40;;;;;;5051363;28;20160;-59
2023/06/18 00:39:06;;;;;;;2.83;1.60;;;25.30;45.40;;;;;;5052167;28;20098;-59
2023/06/18 00:41:34;;;;;;;1.40;1.30;;;25.30;45.40;;;;;;5052998;28;20053;-58
2023/06/18 00:44:02;;;;;;;0.90;0.85;;;25.30;45.40;;;;;;5052183;28;20742;-59
2023/06/18 00:46:30;;;;;;;1.33;1.23;;;25.20;45.30;;;;;;5052422;28;20103;-59
2023/06/18 00:48:58;;;;;;;1.40;1.30;;;25.20;45.40;;;;;;5051695;28;20136;-58
2023/06/18 00:51:30;;;;;;;1.23;1.15;;;25.20;45.40;;;;;;5052592;28;20052;-58
2023/06/18 00:53:58;;;;;;;2.05;1.00;;;25.20;45.40;;;;;;5052743;28;20052;-59
2023/06/18 00:56:29;;;;;;;1.10;1.10;;;25.20;45.50;;;;;;5052525;28;20045;-59
2023/06/18 00:58:57;;;;;;;2.80;1.10;;;25.20;45.50;;;;;;5051782;28;20052;-59
2023/06/18 01:01:25;;;;;;;1.60;1.50;;;25.20;45.50;;;;;;5051741;28;20444;-59
2023/06/18 01:03:56;;;;;;;2.83;1.40;;;25.10;45.40;;;;;;5051286;28;20107;-59
2023/06/18 01:06:26;;;;;;;1.38;1.35;;;25.10;45.50;;;;;;5052217;28;20087;-59
2023/06/18 01:08:55;;;;;;;1.50;1.40;;;25.20;45.60;;;;;;5052808;28;20115;-59
2023/06/18 01:11:24;;;;;;;1.17;1.17;;;25.20;45.60;;;;;;5053878;28;20124;-58
2023/06/18 01:13:52;;;;;;;1.70;1.60;;;25.10;45.50;;;;;;5056476;28;20939;-59
2023/06/18 01:16:23;;;;;;;1.50;1.40;;;25.10;45.50;;;;;;5056535;28;20045;-58
2023/06/18 01:18:52;;;;;;;2.17;1.30;;;25.10;45.60;;;;;;5056565;28;20097;-58
2023/06/18 01:21:23;;;;;;;1.42;1.33;;;25.10;45.60;;;;;;5055674;28;20049;-58
2023/06/18 01:24:03;;;;;;;1.08;1.05;;;25.10;45.60;;;;;;5056733;28;20455;-58
2023/06/18 01:26:32;;;;;;;1.05;1.05;;;25.10;45.60;;;;;;5056317;28;20045;-58
2023/06/18 01:29:00;;;;;;;1.10;1.10;;;25.10;45.60;;;;;;5055066;28;20048;-58
2023/06/18 01:31:36;;;;;;;1.52;1.42;;;25.10;45.60;;;;;;5056448;28;20144;-58
2023/06/18 01:34:04;;;;;;;1.42;1.33;;;25.10;45.70;;;;;;5055205;28;20041;-58
2023/06/18 01:37:05;;;;;;;1.40;1.33;;;25.10;45.70;;;;;;5056245;28;20858;-59
2023/06/18 01:39:43;;;;;;;1.48;1.38;;;25.10;45.70;;;;;;5055496;28;20396;-58
2023/06/18 01:42:16;;;;;;;1.85;1.75;;;25.10;46.30;;;;;;5056391;28;20090;-58
2023/06/18 01:44:47;;;;;;;1.20;1.20;;;25.00;45.70;;;;;;5055813;28;20049;-59
2023/06/18 01:47:16;;;;;;;1.85;1.70;;;25.10;45.70;;;;;;5056031;28;20132;-58
2023/06/18 01:49:45;;;;;;;1.55;1.45;;;25.10;45.80;;;;;;5055359;28;20482;-59
2023/06/18 01:52:16;;;;;;;1.50;1.40;;;25.10;45.80;;;;;;5055734;28;20053;-59
2023/06/18 01:54:46;;;;;;;;;;;25.00;45.80;;;;;;5056087;28;20045;-58
2023/06/18 01:57:14;;;;;;;1.40;1.30;;;25.00;45.70;;;;;;5055505;28;19974;-58
2023/06/18 01:59:45;;;;;;;1.38;1.27;;;25.00;45.80;;;;;;5053654;28;20079;-59
2023/06/18 02:02:12;;;;;;;1.55;1.45;;;25.00;45.80;;;;;;5055956;28;20049;-59
2023/06/18 02:04:43;;;;;;;1.42;1.33;;;25.00;45.80;;;;;;5054496;28;20052;-59
2023/06/18 02:07:12;;;;;;;1.17;1.10;;;25.00;45.80;;;;;;5054299;28;20041;-59
2023/06/18 02:09:40;;;;;;;1.30;1.20;;;25.00;45.80;;;;;;5036493;28;20057;-58
2023/06/18 02:12:07;;;;;;;1.40;1.30;;;25.00;45.80;;;;;;5054268;28;20103;-59
2023/06/18 02:14:35;;;;;;;1.63;1.52;;;25.00;45.90;;;;;;5053919;28;20079;-58
2023/06/18 02:17:02;;;;;;;2.38;1.70;;;25.00;45.90;;;;;;5054086;28;20059;-58
2023/06/18 02:19:29;;;;;;;1.40;1.30;;;25.00;45.80;;;;;;5054238;28;20060;-59
2023/06/18 02:21:57;;;;;;;1.05;1.00;;;25.00;45.80;;;;;;5053897;28;20072;-59
2023/06/18 02:24:24;;;;;;;1.98;1.45;;;25.00;45.80;;;;;;5052714;28;20426;-59
2023/06/18 02:26:51;;;;;;;1.45;1.35;;;25.00;45.90;;;;;;5053862;28;20056;-59
2023/06/18 02:29:18;;;;;;;1.77;1.67;;;25.00;45.90;;;;;;5054116;28;20138;-59
2023/06/18 02:31:45;;;;;;;1.40;1.30;;;25.00;45.80;;;;;;5054215;28;20048;-60
2023/06/18 02:34:12;;;;;;;1.80;1.70;;;25.00;45.80;;;;;;5053964;28;20072;-58
2023/06/18 02:36:39;;;;;;;1.83;1.58;;;25.00;45.80;;;;;;5053803;28;20049;-59
2023/06/18 02:39:08;;;;;;;2.22;2.03;;;25.00;45.80;;;;;;5054049;28;20048;-59
2023/06/18 02:41:35;;;;;;;1.40;1.30;;;25.00;45.80;;;;;;5053722;28;20045;-59
2023/06/18 02:44:04;;;;;;;1.40;1.33;;;25.10;45.90;;;;;;5053000;28;20056;-59
2023/06/18 02:46:31;;;;;;;1.30;1.20;;;25.10;45.80;;;;;;5052316;28;20045;-58
2023/06/18 02:48:58;;;;;;;1.45;1.35;;;25.10;45.80;;;;;;5053741;28;20049;-58
2023/06/18 02:51:25;;;;;;;1.50;1.40;;;25.00;45.70;;;;;;5054074;28;20455;-59
2023/06/18 02:53:52;;;;;;;1.48;1.38;;;25.10;45.80;;;;;;5053503;28;20049;-59
2023/06/18 02:56:21;;;;;;;1.50;1.40;;;25.10;45.80;;;;;;5053585;28;20052;-59
2023/06/18 02:58:55;;;;;;;1.73;1.63;;;25.10;45.80;;;;;;5053218;28;20095;-58
2023/06/18 03:01:24;;;;;;;1.40;1.30;;;25.00;45.70;;;;;;5052422;28;20049;-59
2023/06/18 03:03:53;;;;;;;1.30;1.20;;;25.10;45.80;;;;;;5008938;28;1292203;-59
2023/06/18 03:06:21;;;;;;;1.40;1.30;;;25.00;45.70;;;;;;5054536;28;20103;-59
2023/06/18 03:08:48;;;;;;;1.42;1.33;;;25.10;45.80;;;;;;5054382;28;20106;-59
2023/06/18 03:11:15;;;;;;;3.15;1.63;;;25.10;45.70;;;;;;5054738;28;20056;-59
2023/06/18 03:13:42;;;;;;;1.58;1.48;;;25.10;45.80;;;;;;5054229;28;20052;-58
2023/06/18 03:16:09;;;;;;;1.40;1.30;;;25.10;45.70;;;;;;5054459;28;20091;-58
2023/06/18 03:18:37;;;;;;;1.60;1.42;;;25.10;45.70;;;;;;5053942;28;20053;-59
2023/06/18 03:21:04;;;;;;;1.10;1.00;;;25.10;45.70;;;;;;5053790;28;20049;-58
2023/06/18 03:23:31;;;;;;;1.40;1.35;;;25.10;45.70;;;;;;5054025;28;20103;-59
2023/06/18 03:25:58;;;;;;;2.10;1.50;;;25.10;45.70;;;;;;5053922;28;20044;-59
2023/06/18 03:28:25;;;;;;;1.60;1.50;;;25.10;45.70;;;;;;5053878;28;20053;-59
2023/06/18 03:30:53;;;;;;;1.50;1.40;;;25.10;45.70;;;;;;5053539;28;20496;-59
2023/06/18 03:33:21;;;;;;;1.27;1.17;;;25.10;45.70;;;;;;5053177;28;20099;-59
2023/06/18 03:35:49;;;;;;;1.50;1.40;;;25.10;45.70;;;;;;5053695;28;20084;-58
2023/06/18 03:38:17;;;;;;;2.25;2.05;;;25.10;45.60;;;;;;5053642;28;20053;-59
2023/06/18 03:40:44;;;;;;;1.52;1.42;;;25.10;45.60;;;;;;5054096;28;20076;-59
2023/06/18 03:43:11;;;;;;;1.42;1.33;;;25.10;45.60;;;;;;5052507;28;20076;-58
2023/06/18 03:45:38;;;;;;;1.40;1.30;;;25.10;45.50;;;;;;5054131;28;20472;-59
2023/06/18 03:48:05;;;;;;;1.40;1.30;;;25.10;45.50;;;;;;5053551;28;20486;-58
2023/06/18 03:50:32;;;;;;;1.35;1.25;;;25.20;45.60;;;;;;5052070;28;20501;-59
2023/06/18 03:53:00;;;;;;;1.50;1.40;;;25.10;45.50;;;;;;5053667;28;20106;-59
2023/06/18 03:55:27;;;;;;;1.60;1.50;;;25.20;45.50;;;;;;5053149;28;20045;-59
2023/06/18 03:57:54;;;;;;;1.52;1.40;;;25.20;45.50;;;;;;5052225;28;20472;-59
2023/06/18 04:00:22;;;;;;;1.77;1.67;;;25.20;45.40;;;;;;5053179;28;20106;-58
2023/06/18 04:02:52;;;;;;;1.70;1.60;;;25.20;45.40;;;;;;5053132;28;20052;-58
2023/06/18 04:05:19;;;;;;;1.40;1.30;;;25.20;45.40;;;;;;5053311;28;20052;-58
2023/06/18 04:07:46;;;;;;;1.50;1.30;;;25.30;45.40;;;;;;5053452;28;20052;-58
2023/06/18 04:10:13;;;;;;;1.30;1.20;;;25.30;45.40;;;;;;5052085;28;20504;-58
2023/06/18 04:12:40;;;;;;;1.60;1.50;;;25.30;45.40;;;;;;5053182;28;20102;-59
2023/06/18 04:15:09;;;;;;;2.10;1.90;;;25.30;45.40;;;;;;5052940;28;20452;-58
2023/06/18 04:17:40;;;;;;;1.25;1.20;;;25.30;45.30;;;;;;5053032;28;20107;-58
2023/06/18 04:20:08;;;;;;;1.45;1.35;;;25.30;45.30;;;;;;5052306;28;20045;-59
2023/06/18 04:22:36;;;;;;;1.13;1.02;;;25.30;45.20;;;;;;5053248;28;20410;-59
2023/06/18 04:25:03;;;;;;;1.80;1.70;;;25.40;45.30;;;;;;5052813;28;20056;-59
2023/06/18 04:27:30;;;;;;;1.48;1.38;;;25.40;45.20;;;;;;5051469;28;20136;-59
2023/06/18 04:29:58;;;;;;;1.63;1.52;;;25.40;45.20;;;;;;5052406;28;20098;-58
2023/06/18 04:32:25;;;;;;;1.50;1.20;;;25.40;45.10;;;;;;5052645;28;20049;-59
2023/06/18 04:34:52;;;;;;;1.70;1.60;;;25.40;45.10;;;;;;5052988;28;20057;-59
2023/06/18 04:37:19;;;;;;;1.65;1.55;;;25.40;45.10;;;;;;5053131;28;20099;-58
2023/06/18 04:39:47;;;;;;;1.67;1.50;;;25.30;45.30;;;;;;5051098;28;20051;-58
2023/06/18 04:42:15;;;;;;;1.65;1.40;;;25.20;45.40;;;;;;5053198;28;20174;-59
2023/06/18 04:44:42;;;;;;;1.90;1.60;;;25.00;45.70;;;;;;5052303;28;20060;-58
2023/06/18 04:47:09;;;;;;;1.60;1.50;;;24.80;46.10;;;;;;5052564;28;20049;-58
2023/06/18 04:49:36;;;;;;;1.70;1.60;;;24.50;46.60;;;;;;5052270;28;20440;-58
2023/06/18 04:52:04;;;;;;;1.85;1.75;;;24.30;47.40;;;;;;5052863;28;20440;-58
2023/06/18 04:54:31;;;;;;;1.63;1.52;;;23.90;48.00;;;;;;5052368;28;20045;-58
2023/06/18 04:56:59;;;;;;;1.80;1.70;;;23.60;48.30;;;;;;5052581;28;20052;-58
2023/06/18 04:59:26;;;;;;;1.80;1.70;;;23.30;48.60;;;;;;5052124;28;20041;-58
2023/06/18 05:01:54;;;;;;;2.53;1.83;;;23.00;49.10;;;;;;5052500;28;20622;-58
2023/06/18 05:04:21;;;;;;;1.77;1.67;;;22.70;50.30;;;;;;5052335;28;20490;-58
2023/06/18 05:06:49;;;;;;;1.70;1.60;;;22.50;50.60;;;;;;5052783;28;20150;-58
2023/06/18 05:09:16;;;;;;;1.95;1.67;;;22.30;50.40;;;;;;5051679;28;20091;-58
2023/06/18 05:11:43;;;;;;;2.40;2.20;;;22.10;51.30;;;;;;5052788;28;20453;-58
2023/06/18 05:14:10;;;;;;;2.22;1.95;;;21.90;51.70;;;;;;5052495;28;20053;-59
2023/06/18 05:16:37;;;;;;;2.33;2.08;;;21.80;51.10;;;;;;5052173;28;20041;-58
2023/06/18 05:19:05;;;;;;;3.30;2.08;;;21.60;51.50;;;;;;5050554;28;20049;-58
2023/06/18 05:21:32;;;;;;;2.20;2.00;;;21.50;52.40;;;;;;5051875;28;20084;-58
2023/06/18 05:23:59;;;;;;;2.50;2.30;;;21.40;52.70;;;;;;5050760;28;20045;-58
2023/06/18 05:26:27;;;;;;;2.33;2.13;;;21.30;51.80;;;;;;5051541;28;20045;-58
2023/06/18 05:28:54;;;;;;;2.20;2.05;;;21.20;52.60;;;;;;5051696;28;20060;-58
2023/06/18 05:31:21;;;;;;;2.45;2.25;;;21.10;52.70;;;;;;5052580;28;20049;-58
2023/06/18 05:33:49;;;;;;;2.33;1.95;;;21.00;52.20;;;;;;5052062;28;20110;-58
2023/06/18 05:36:16;;;;;;;2.13;1.98;;;20.90;52.80;;;;;;5052558;28;20045;-59
2023/06/18 05:38:43;;;;;;;2.20;2.00;;;20.80;53.60;;;;;;5052231;28;20468;-58
2023/06/18 05:41:10;;;;;;;2.35;2.15;;;20.70;53.50;;;;;;5052189;28;20107;-58
2023/06/18 05:43:38;;;;;;;2.40;2.20;;;20.70;52.60;;;;;;5050267;28;20045;-58
2023/06/18 05:46:05;;;;;;;3.20;2.10;;;20.60;53.60;;;;;;5050942;28;20045;-58
2023/06/18 05:48:32;;;;;;;1.80;1.70;;;20.60;53.90;;;;;;5052137;28;20060;-58
2023/06/18 05:50:59;;;;;;;3.63;2.20;;;20.50;53.40;;;;;;5052186;28;20075;-58
2023/06/18 05:53:26;;;;;;;2.50;2.30;;;20.50;53.50;;;;;;5051723;28;20059;-58
2023/06/18 05:55:54;;;;;;;2.28;2.08;;;20.40;53.70;;;;;;5051944;28;20516;-58
2023/06/18 05:58:21;;;;;;;2.10;2.00;;;20.40;53.80;;;;;;5055106;28;20127;-58
2023/06/18 06:00:51;;;;;;;2.55;2.00;;;20.30;53.90;;;;;;5055938;28;20057;-58
2023/06/18 06:03:18;;;;;;;2.55;2.30;;;20.30;54.30;;;;;;5055788;28;20083;-59
2023/06/18 06:05:45;;;;;;;2.50;2.30;;;20.30;53.60;;;;;;5055948;28;20049;-58
2023/06/18 06:08:13;;;;;;;4.75;2.78;;;20.30;54.00;;;;;;5055269;28;20067;-58
2023/06/18 06:10:40;;;;;;;2.13;2.00;;;20.20;54.70;;;;;;5055276;28;20098;-58
2023/06/18 06:13:07;;;;;;;2.78;2.58;;;20.20;54.70;;;;;;5055480;28;20041;-58
2023/06/18 06:15:34;;;;;;;2.42;2.22;;;20.10;54.20;;;;;;5055089;28;20114;-57
2023/06/18 06:18:02;;;;;;;2.45;2.10;;;20.10;54.30;;;;;;5055533;28;20049;-58
2023/06/18 06:20:30;;;;;;;2.00;1.90;;;20.10;54.80;;;;;;5055347;28;20045;-58
2023/06/18 06:22:57;;;;;;;2.88;2.50;;;20.10;54.50;;;;;;5055153;28;20091;-58
2023/06/18 06:25:24;;;;;;;4.22;2.72;;;20.10;54.80;;;;;;5055634;28;20044;-58
2023/06/18 06:27:51;;;;;;;2.83;2.38;;;20.10;55.70;;;;;;5054948;28;20059;-58
2023/06/18 06:30:18;;;;;;;2.67;2.20;;;20.10;54.70;;;;;;5054155;28;20107;-58
2023/06/18 06:32:46;;;;;;;2.90;2.60;;;20.10;54.70;;;;;;5054997;28;20048;-58
2023/06/18 06:35:13;;;;;;;2.58;2.33;;;20.10;55.40;;;;;;5054815;28;20128;-58
2023/06/18 06:37:40;;;;;;;2.08;1.98;;;20.10;55.20;;;;;;5055326;28;20178;-58
2023/06/18 06:40:08;;;;;;;2.55;2.35;;;20.10;54.80;;;;;;5054225;28;20461;-58
2023/06/18 06:42:35;;;;;;;2.50;2.13;;;20.10;55.60;;;;;;5055218;28;20048;-58
2023/06/18 06:45:03;;;;;;;3.67;2.65;;;20.10;55.40;;;;;;5054654;28;20056;-58
2023/06/18 06:47:30;;;;;;;2.00;1.90;;;20.10;55.10;;;;;;5054711;28;20474;-58
2023/06/18 06:49:58;;;;;;;2.55;2.30;;;20.20;55.70;;;;;;5054083;28;20496;-58
2023/06/18 06:52:25;;;;;;;2.72;2.05;;;20.20;55.90;;;;;;5053659;28;20052;-58
2023/06/18 06:54:52;;;;;;;2.38;2.17;;;20.20;55.20;;;;;;5054823;28;20057;-58
2023/06/18 06:57:19;;;;;;;2.65;2.05;;;20.20;55.40;;;;;;5054885;28;20083;-58
2023/06/18 06:59:46;;;;;;;2.88;2.17;;;20.20;55.80;;;;;;5053924;28;20067;-58
2023/06/18 07:02:13;;;;;;;2.25;2.05;;;20.30;55.40;;;;;;5053470;28;20049;-58
2023/06/18 07:04:46;;;;;;;2.35;2.10;;;20.30;55.40;;;;;;5049157;28;20052;-58
2023/06/18 07:07:14;;;;;;;2.65;2.40;;;20.30;56.10;;;;;;5054282;28;20204;-58
2023/06/18 07:09:41;;;;;;;3.63;2.42;;;20.40;55.70;;;;;;5051058;28;20083;-58
2023/06/18 07:12:08;;;;;;;2.15;1.95;;;20.50;55.30;;;;;;5054434;28;20049;-58
2023/06/18 07:14:36;;;;;;;3.45;2.45;;;20.40;55.20;;;;;;5054236;28;20136;-58
2023/06/18 07:17:03;;;;;;;2.67;2.40;;;20.50;55.30;;;;;;5054195;28;20076;-59
2023/06/18 07:19:30;;;;;;;2.80;2.60;;;20.50;55.00;;;;;;5053714;28;20052;-60
2023/06/18 07:21:57;;;;;;;2.42;2.22;;;20.50;55.20;;;;;;5054271;28;20102;-59
2023/06/18 07:24:24;;;;;;;2.30;2.10;;;20.50;55.40;;;;;;5052998;28;20076;-59
2023/06/18 07:26:52;;;;;;;2.95;2.33;;;20.50;55.20;;;;;;5054465;28;20064;-59
2023/06/18 07:29:19;;;;;;;1.98;1.88;;;20.50;54.80;;;;;;5053647;28;20127;-59
2023/06/18 07:31:46;;;;;;;2.35;2.05;;;20.50;54.90;;;;;;5052870;28;20489;-59
2023/06/18 07:34:13;;;;;;;4.57;2.10;;;20.50;55.00;;;;;;5051300;28;20106;-59
2023/06/18 07:36:40;;;;;;;3.08;2.05;;;20.50;55.10;;;;;;5054129;28;20405;-59
2023/06/18 07:39:08;;;;;;;2.63;2.40;;;20.50;55.10;;;;;;5044905;28;20049;-59
2023/06/18 07:41:35;;;;;;;2.53;2.20;;;20.60;55.10;;;;;;5042158;28;20087;-59
2023/06/18 07:44:02;;;;;;;3.33;2.15;;;20.60;54.90;;;;;;5053666;28;20106;-59
2023/06/18 07:46:30;;;;;;;2.30;2.10;;;20.60;54.80;;;;;;5053407;28;20045;-59
2023/06/18 07:48:57;;;;;;;2.47;2.10;;;20.60;54.90;;;;;;5053120;28;20049;-59
2023/06/18 07:51:24;;;;;;;3.78;2.28;;;20.60;55.00;;;;;;5053649;28;20437;-59
2023/06/18 07:53:51;;;;;;;3.20;2.60;;;20.70;55.30;;;;;;5052311;28;20048;-59
2023/06/18 07:56:19;;;;;;;2.60;2.40;;;20.70;55.20;;;;;;5053930;28;20068;-59
2023/06/18 07:58:46;;;;;;;2.70;2.50;;;20.70;55.00;;;;;;5053285;28;20045;-59
2023/06/18 08:01:13;;;;;;;3.58;2.70;;;20.70;55.00;;;;;;5053337;28;20056;-59
2023/06/18 08:03:40;;;;;;;3.05;2.70;;;20.70;55.00;;;;;;5052783;28;20045;-59
2023/06/18 08:06:07;;;;;;;2.78;2.40;;;20.70;55.00;;;;;;5052127;28;20049;-59
2023/06/18 08:08:37;;;;;;;2.65;2.03;;;20.70;55.10;;;;;;5052750;28;20490;-59
2023/06/18 08:11:04;;;;;;;2.47;2.28;;;20.80;55.60;;;;;;5053000;28;20449;-59
2023/06/18 08:13:31;;;;;;;2.53;2.33;;;20.80;55.50;;;;;;5051206;28;20053;-59
2023/06/18 08:15:59;;;;;;;2.85;2.53;;;20.80;55.20;;;;;;5052803;28;20489;-59
2023/06/18 08:18:27;;;;;;;2.63;2.40;;;20.80;55.00;;;;;;5053034;28;20123;-59
2023/06/18 08:20:55;;;;;;;2.38;2.28;;;20.80;55.20;;;;;;5052054;28;20056;-59
2023/06/18 08:23:22;;;;;;;2.70;2.50;;;20.80;55.20;;;;;;5051549;28;20045;-59
2023/06/18 08:25:49;;;;;;;3.03;2.30;;;20.90;55.00;;;;;;5053349;28;20398;-59
2023/06/18 08:28:16;;;;;;;2.72;2.53;;;20.90;55.20;;;;;;5052604;28;20098;-59
2023/06/18 08:30:43;;;;;;;2.00;1.90;;;20.80;55.10;;;;;;5052349;28;20049;-60
2023/06/18 08:33:10;;;;;;;3.00;2.30;;;20.80;55.00;;;;;;5053256;28;20515;-59
2023/06/18 08:35:38;;;;;;;3.20;2.70;;;20.80;55.00;;;;;;5052691;28;20465;-59
2023/06/18 08:38:05;;;;;;;2.80;2.50;;;20.80;55.10;;;;;;5053234;28;20072;-59
2023/06/18 08:40:37;;;;;;;2.50;2.30;;;20.80;55.10;;;;;;5052705;28;20844;-59
2023/06/18 08:43:09;;;;;;;2.70;2.50;;;20.80;55.30;;;;;;5052801;28;20049;-59
2023/06/18 08:45:36;;;;;;;3.47;2.30;;;20.80;55.60;;;;;;5052825;28;20053;-59
2023/06/18 08:48:07;;;;;;;2.75;2.55;;;20.90;55.50;;;;;;5052569;28;20049;-59
2023/06/18 08:51:05;;;;;;;3.30;2.65;;;20.90;55.30;;;;;;5052622;28;20057;-58
2023/06/18 08:53:45;;;;;;;3.35;2.30;;;20.90;55.30;;;;;;5052656;28;20255;-59
2023/06/18 08:56:15;;;;;;;2.80;2.35;;;20.90;55.40;;;;;;5051613;28;20057;-59
2023/06/18 08:58:50;;;;;;;4.55;2.97;;;20.90;55.30;;;;;;5052768;28;20053;-59
2023/06/18 09:01:19;;;;;;;3.65;2.65;;;20.90;55.30;;;;;;5051409;28;20041;-59
2023/06/18 09:03:47;;;;;;;2.63;2.42;;;20.90;55.30;;;;;;5051563;28;20045;-59
2023/06/18 09:06:14;;;;;;;2.90;2.60;;;20.90;55.20;;;;;;5052554;28;20056;-59
2023/06/18 09:08:42;;;;;;;2.97;2.65;;;20.90;55.30;;;;;;5051488;28;20045;-59
2023/06/18 09:11:09;;;;;;;2.70;2.40;;;20.90;55.50;;;;;;5052457;28;20053;-59
2023/06/18 09:13:41;;;;;;;3.85;2.58;;;20.90;55.30;;;;;;5051400;28;20370;-59
2023/06/18 09:16:10;;;;;;;2.70;2.50;;;20.90;55.40;;;;;;5052192;28;20080;-59
2023/06/18 09:18:37;;;;;;;3.58;2.95;;;20.90;55.50;;;;;;5051035;28;20482;-59
2023/06/18 09:21:05;;;;;;;3.13;2.65;;;20.90;55.90;;;;;;5052681;28;20052;-59
2023/06/18 09:23:33;;;;;;;3.03;2.78;;;20.90;55.60;;;;;;5052688;28;20044;-59
2023/06/18 09:26:01;;;;;;;4.38;2.25;;;21.00;55.50;;;;;;5052478;28;20057;-59
2023/06/18 09:28:29;;;;;;;3.53;2.83;;;20.90;55.70;;;;;;5052116;28;20045;-59
2023/06/18 09:31:01;;;;;;;4.68;3.05;;;21.00;55.80;;;;;;5052031;28;20049;-59
2023/06/18 09:33:33;;;;;;;3.50;2.65;;;20.90;55.40;;;;;;5055476;28;20041;-59
2023/06/18 09:36:08;;;;;;;2.97;2.33;;;21.00;55.50;;;;;;5056429;28;20134;-59
2023/06/18 09:38:38;;;;;;;3.92;3.15;;;21.00;55.40;;;;;;5056268;28;20132;-59
2023/06/18 09:41:14;;;;;;;3.00;2.78;;;21.00;55.30;;;;;;5056048;28;20493;-60
2023/06/18 09:43:43;;;;;;;2.85;2.63;;;20.90;55.40;;;;;;5055027;28;20052;-59
2023/06/18 09:46:11;;;;;;;2.53;2.33;;;21.00;55.70;;;;;;5056332;28;20047;-59
2023/06/18 09:48:45;;;;;;;3.15;2.85;;;20.90;55.50;;;;;;5055950;28;20049;-59
2023/06/18 09:51:16;;;;;;;5.25;2.60;;;20.90;55.60;;;;;;5055896;28;20049;-59
2023/06/18 09:53:44;;;;;;;2.95;2.63;;;20.90;55.70;;;;;;5055811;28;20143;-58
2023/06/18 09:56:14;;;;;;;3.10;2.83;;;20.90;55.80;;;;;;5055657;28;20048;-59
2023/06/18 09:58:47;;;;;;;2.78;2.28;;;20.90;55.70;;;;;;5055964;28;20463;-59
2023/06/18 10:01:16;;;;;;;3.22;2.78;;;20.90;55.70;;;;;;5055025;28;20103;-59
2023/06/18 10:03:44;;;;;;;2.88;2.67;;;20.90;55.80;;;;;;5055609;28;20072;-59
2023/06/18 10:06:20;;;;;;;3.30;2.75;;;20.90;55.70;;;;;;5055703;28;20486;-60
2023/06/18 10:08:55;;;;;;;3.40;2.92;;;21.00;55.50;;;;;;5055155;28;20041;-59
2023/06/18 10:11:22;;;;;;;3.20;2.90;;;21.00;55.60;;;;;;5055422;28;20098;-59
2023/06/18 10:13:53;;;;;;;3.33;2.67;;;21.00;55.70;;;;;;5055288;28;20049;-59
2023/06/18 10:16:20;;;;;;;3.25;2.95;;;21.00;55.70;;;;;;5055272;28;20044;-59
2023/06/18 10:19:06;;;;;;;4.03;2.60;;;21.00;56.20;;;;;;5054877;28;20045;-58
2023/06/18 10:21:37;;;;;;;3.05;2.72;;;21.00;55.30;;;;;;5054161;28;20560;-59
2023/06/18 10:24:24;;;;;;;;;;;21.00;55.40;;;;;;5056044;28;20166;-59
2023/06/18 10:26:51;;;;;;;;;;;21.00;55.70;;;;;;5055520;28;20015;-59
2023/06/18 10:29:19;;;;;;;;;;;21.00;56.00;;;;;;5055573;28;20366;-59
2023/06/18 10:31:46;;;;;;;;;;;21.00;55.80;;;;;;5055733;28;19925;-59
2023/06/18 10:34:14;;;;;;;;;;;21.00;55.50;;;;;;5055313;28;20350;-59
2023/06/18 10:36:43;;;;;;;;;;;21.00;55.50;;;;;;5055512;28;20380;-59
2023/06/18 10:39:10;;;;;;;;;;;20.90;55.60;;;;;;5055386;28;19921;-59
2023/06/18 10:41:51;;;;;;;;;;;20.90;55.60;;;;;;5055150;28;19920;-58
2023/06/18 10:44:32;;;;;;;;;;;20.90;55.80;;;;;;5055416;28;20016;-59
2023/06/18 10:47:19;;;;;;;;;;;20.90;55.90;;;;;;5047512;28;20377;-59
2023/06/18 10:50:06;;;;;;;;;;;20.90;55.70;;;;;;5053847;28;19921;-58
2023/06/18 10:52:34;;;;;;;;;;;21.00;55.90;;;;;;5054152;28;19935;-59
2023/06/18 10:55:09;;;;;;;;;;;21.00;55.60;;;;;;5038755;28;19975;-59
2023/06/18 10:57:38;;;;;;;;;;;21.00;55.60;;;;;;5036443;28;20081;-60
2023/06/18 11:00:19;;;;;;;;;;;21.00;56.00;;;;;;5041407;28;19921;-59
2023/06/18 11:02:48;;;;;;;;;;;21.00;56.00;;;;;;5035208;28;19944;-59
2023/06/18 11:05:16;;;;;;;;;;;21.00;56.10;;;;;;5066570;28;19928;-57
2023/06/18 11:07:50;;;;;;;;;;;21.00;55.90;;;;;;5034903;28;19979;-57
2023/06/18 11:10:30;;;;;;;;;;;21.10;55.70;;;;;;5034574;28;20397;-57
2023/06/18 11:12:57;;;;;;;;;;;21.10;55.60;;;;;;5035218;28;19921;-57
2023/06/18 11:15:24;;;;;;;;;;;21.10;55.70;;;;;;5034276;28;19925;-57
2023/06/18 11:17:53;;;;;;;;;;;21.10;55.60;;;;;;5035136;28;20008;-57
2023/06/18 11:20:21;;;;;;;;;;;21.10;55.60;;;;;;5043971;28;19928;-58
2023/06/18 11:22:53;;;;;;;;;;;21.10;56.10;;;;;;5054977;28;19951;-57
2023/06/18 11:25:20;;;;;;;;;;;21.10;55.80;;;;;;5054765;28;19982;-57
2023/06/18 11:27:51;;;;;;;;;;;21.10;55.80;;;;;;5054613;28;19920;-57
2023/06/18 11:30:18;;;;;;;;;;;21.10;55.70;;;;;;5054442;28;19921;-57
2023/06/18 11:32:46;;;;;;;;;;;21.20;55.90;;;;;;5054176;28;20438;-57
2023/06/18 11:35:13;;;;;;;;;;;21.20;55.80;;;;;;5054165;28;19931;-57
2023/06/18 11:37:41;;;;;;;;;;;21.20;55.60;;;;;;5054020;28;19920;-58
2023/06/18 11:40:09;;;;;;;;;;;21.20;55.30;;;;;;5054478;28;19980;-58
2023/06/18 11:42:37;;;;;;;;;;;21.30;55.20;;;;;;5086333;28;19927;-58
2023/06/18 11:45:05;;;;;;;;;;;21.30;55.00;;;;;;5054192;28;19947;-57
2023/06/18 11:47:34;;;;;;;;;;;21.30;54.90;;;;;;5054413;28;19927;-57
2023/06/18 11:50:01;;;;;;;;;;;21.30;54.80;;;;;;5053972;28;19920;-57
2023/06/18 11:52:30;;;;;;;;;;;21.30;54.80;;;;;;5054295;28;20289;-57
2023/06/18 11:55:01;;;;;;;;;;;21.30;54.80;;;;;;5053044;28;20389;-58
2023/06/18 11:57:28;;;;;;;;;;;21.30;55.40;;;;;;5086249;28;19982;-57
2023/06/18 11:59:55;;;;;;;;;;;21.40;55.30;;;;;;5053196;28;19974;-57
2023/06/18 12:02:27;;;;;;;;;;;21.40;55.10;;;;;;5054097;28;19974;-58
2023/06/18 12:05:02;;;;;;;;;;;21.40;55.00;;;;;;5053581;28;19935;-57
2023/06/18 12:07:30;;;;;;;;;;;21.40;54.90;;;;;;5054116;28;19924;-57
2023/06/18 12:09:58;;;;;;;;;;;21.50;55.10;;;;;;5053859;28;19968;-57
2023/06/18 12:12:40;;;;;;;;;;;21.50;54.90;;;;;;5053660;28;19966;-57
2023/06/18 12:15:22;;;;;;;;;;;21.50;54.60;;;;;;5053758;28;19982;-57
2023/06/18 12:17:55;;;;;;;;;;;21.50;54.40;;;;;;5053463;28;20365;-58
2023/06/18 12:20:27;;;;;;;;;;;21.50;54.40;;;;;;5053947;28;19928;-57
2023/06/18 12:22:56;;;;;;;;;;;21.40;54.40;;;;;;5053718;28;19924;-57
2023/06/18 12:25:27;;;;;;;;;;;21.40;54.60;;;;;;5053466;28;19931;-57
2023/06/18 12:27:55;;;;;;;;;;;21.40;54.70;;;;;;5053763;28;19933;-57
2023/06/18 12:30:27;;;;;;;;;;;21.40;54.90;;;;;;5049520;28;19920;-57
2023/06/18 12:33:11;;;;;;;;;;;21.40;55.00;;;;;;5053400;28;20439;-57
2023/06/18 12:35:40;;;;;;;;;;;21.40;54.90;;;;;;5053335;28;19921;-57
2023/06/18 12:38:08;;;;;;;;;;;21.40;54.90;;;;;;5053296;28;19920;-57
2023/06/18 12:40:46;;;;;;;;;;;21.40;54.90;;;;;;5052623;28;19974;-57
2023/06/18 12:43:15;;;;;;;;;;;21.40;54.80;;;;;;5052983;28;20385;-57
2023/06/18 12:45:45;;;;;;;;;;;21.40;54.80;;;;;;5053336;28;20357;-57
2023/06/18 12:48:14;;;;;;;;;;;21.40;54.80;;;;;;5053249;28;19921;-58
2023/06/18 12:50:43;;;;;;;;;;;21.40;54.80;;;;;;5053138;28;19990;-57
2023/06/18 12:53:14;;;;;;;;;;;21.40;54.80;;;;;;5053417;28;20336;-57
2023/06/18 12:55:44;;;;;;;;;;;21.40;54.70;;;;;;5052672;28;20019;-58
2023/06/18 12:58:15;;;;;;;;;;;21.40;54.70;;;;;;5053020;28;19928;-58
2023/06/18 13:00:43;;;;;;;;;;;21.40;55.00;;;;;;5052814;28;19920;-58
2023/06/18 13:03:10;;;;;;;;;;;21.40;55.10;;;;;;5053151;28;19975;-58
2023/06/18 13:05:37;;;;;;;;;;;21.40;55.20;;;;;;5053065;28;19924;-57
2023/06/18 13:08:04;;;;;;;;;;;21.40;55.10;;;;;;5057104;28;20391;-58
2023/06/18 13:10:31;;;;;;;;;;;21.40;55.10;;;;;;5057298;28;19992;-58
2023/06/18 13:12:58;;;;;;;;;;;21.40;55.20;;;;;;5056021;28;19920;-58
2023/06/18 13:15:25;;;;;;;;;;;21.40;55.20;;;;;;5056425;28;19921;-57